createdAt,value
2023-12-09T00:06:36.744Z,1.94
2023-12-09T00:16:35.517Z,12.32
2023-12-09T00:26:48.478Z,6.07
2023-12-09T00:36:53.636Z,5.52
2023-12-09T00:46:56.000Z,2.48
2023-12-09T00:56:55.677Z,2.22
2023-12-09T01:07:04.739Z,2.75
2023-12-09T01:17:15.806Z,4.43
2023-12-09T01:27:14.693Z,5.57
2023-12-09T01:37:23.449Z,5.05
2023-12-09T01:47:34.273Z,4.46
2023-12-09T01:57:44.232Z,4.89
2023-12-09T02:07:43.200Z,5.26
2023-12-09T02:17:52.094Z,4.88
2023-12-09T02:28:02.148Z,4.23
2023-12-09T02:38:00.978Z,3.26
2023-12-09T02:48:12.560Z,2.75
2023-12-09T02:58:11.263Z,3.22
2023-12-09T03:08:20.423Z,5.55
2023-12-09T03:18:29.062Z,3.81
2023-12-09T03:28:37.714Z,5.19
2023-12-09T03:38:46.717Z,4.13
2023-12-09T03:48:55.934Z,4.36
2023-12-09T03:59:04.844Z,5.3
2023-12-09T04:09:13.942Z,4.2
2023-12-09T04:19:23.385Z,5.68
2023-12-09T04:29:32.090Z,4.49
2023-12-09T04:39:41.118Z,4.02
2023-12-09T04:49:51.868Z,3.73
2023-12-09T04:59:50.730Z,3.57
2023-12-09T05:10:00.422Z,3.95
2023-12-09T05:20:09.271Z,4.13
2023-12-09T05:30:18.260Z,4.06
2023-12-09T05:40:27.105Z,3.12
2023-12-09T05:50:36.059Z,3.82
2023-12-09T06:00:44.022Z,4.53
2023-12-09T06:10:52.716Z,4.54
2023-12-09T06:21:01.471Z,5.15
2023-12-09T06:31:10.233Z,4.26
2023-12-09T06:41:19.211Z,4.92
2023-12-09T06:51:30.392Z,4.58
2023-12-09T07:01:29.443Z,4.77
2023-12-09T07:11:38.147Z,5.28
2023-12-09T07:21:47.008Z,4.86
2023-12-09T07:31:55.995Z,4.12
2023-12-09T07:42:06.055Z,3.92
2023-12-09T07:52:05.718Z,3.74
2023-12-09T08:02:14.509Z,3.68
2023-12-09T08:13:34.056Z,5.61
2023-12-09T08:22:42.714Z,3.89
2023-12-09T08:32:51.711Z,6.11
2023-12-09T08:43:01.718Z,5.77
2023-12-09T08:53:05.236Z,5.21
2023-12-09T09:03:04.169Z,1.99
2023-12-09T09:13:13.004Z,1.81
2023-12-09T09:23:21.678Z,1.68
2023-12-09T09:33:31.639Z,2.4
2023-12-09T09:43:39.494Z,2.4
2023-12-09T09:53:48.447Z,3.19
2023-12-09T10:03:57.425Z,2.53
2023-12-09T10:14:06.185Z,2.82
2023-12-09T10:24:15.036Z,2.65
2023-12-09T10:34:23.908Z,2.2
2023-12-09T10:44:33.727Z,2.16
2023-12-09T10:47:33.913Z,2.09
2023-12-09T10:56:35.006Z,1.96
2023-12-09T11:06:34.032Z,2.04
2023-12-09T11:16:43.045Z,1.83
2023-12-09T11:26:51.923Z,1.72
2023-12-09T11:37:04.339Z,1.69
2023-12-09T11:47:03.485Z,2.44
2023-12-09T11:57:12.603Z,2.7
2023-12-09T12:07:22.629Z,7.25
2023-12-09T12:17:20.701Z,2.59
2023-12-09T12:27:28.900Z,3.4
2023-12-09T12:37:48.156Z,2.71
2023-12-09T12:47:48.502Z,4.75
2023-12-09T12:57:48.809Z,3.35
2023-12-09T13:07:47.673Z,1.86
2023-12-09T13:17:56.594Z,2.09
2023-12-09T13:28:05.186Z,1.75
2023-12-09T13:38:19.576Z,1.93
2023-12-09T13:48:18.584Z,1.71
2023-12-09T13:58:27.325Z,1.6
2023-12-09T14:08:35.358Z,2.05
2023-12-09T14:18:44.633Z,1.84
2023-12-09T14:28:53.393Z,1.65
2023-12-09T14:39:10.071Z,1.49
2023-12-09T14:49:10.201Z,1.34
2023-12-09T14:59:09.851Z,1.23
2023-12-09T15:09:21.106Z,2.06
2023-12-09T15:19:19.950Z,1.38
2023-12-09T15:29:30.100Z,1.09
2023-12-09T15:39:31.249Z,0.89
2023-12-09T15:49:30.061Z,1.29
2023-12-09T15:59:39.743Z,1.3
2023-12-09T16:09:48.068Z,1.58
2023-12-09T16:19:55.686Z,3.02
2023-12-09T16:30:04.766Z,3.91
2023-12-09T16:40:13.474Z,4.78
2023-12-09T16:50:22.334Z,2.04
2023-12-09T17:00:32.530Z,2.28
2023-12-09T17:10:31.454Z,3.6
2023-12-09T17:20:40.606Z,3.52
2023-12-09T17:30:54.939Z,2.75
2023-12-09T17:40:55.217Z,3.38
2023-12-09T17:50:56.809Z,4.54
2023-12-09T18:00:57.254Z,4.72
2023-12-09T18:10:57.181Z,3.38
2023-12-09T18:21:08.673Z,5.14
2023-12-09T18:31:08.905Z,6.04
2023-12-09T18:41:09.004Z,5.33
2023-12-09T18:51:09.745Z,4.7
2023-12-09T19:01:10.872Z,4.49
2023-12-09T19:11:12.219Z,3.97
2023-12-09T19:21:15.072Z,9.64
2023-12-09T19:31:24.793Z,5.16
2023-12-09T19:41:27.398Z,6.29
2023-12-09T19:51:33.115Z,8.19
2023-12-09T20:01:38.721Z,6.54
2023-12-09T20:11:50.547Z,8.54
2023-12-09T20:21:43.795Z,11.34
2023-12-09T20:31:47.749Z,10.95
2023-12-09T20:51:50.002Z,7.05
2023-12-09T21:01:59.701Z,7.58
2023-12-09T21:12:10.890Z,10.81
2023-12-09T21:22:12.719Z,10.69
2023-12-09T21:32:10.437Z,8.72
2023-12-09T21:42:19.369Z,9.68
2023-12-09T21:52:28.375Z,8.26
2023-12-09T22:02:38.279Z,11.33
2023-12-09T22:12:41.583Z,8.97
2023-12-09T22:32:41.759Z,8.14
2023-12-09T22:42:51.696Z,6.64
2023-12-09T22:53:00.595Z,3.45
2023-12-09T23:03:09.480Z,2.37
2023-12-09T23:13:18.189Z,2.15
2023-12-09T23:23:28.067Z,3.01
2023-12-09T23:33:39.024Z,3.23
2023-12-09T23:43:37.787Z,3.48
2023-12-09T23:53:46.518Z,3.86
